Time;durP1;ratioP1;P1;durP2;ratioP2;P2;SDS_P1;SDS_P2;PMS_P1;PMS_P2;Temp;Humidity;BMP_temperature;BMP_pressure;BME280_temperature;BME280_humidity;BME280_pressure;Samples;Min_cycle;Max_cycle;Signal;HPM_P1;HPM_P2
2022/03/14 00:02:01;;;;;;;20.67;11.65;;;7.90;1.00;;;;;;7394805;19;20019;-62
2022/03/14 00:04:34;;;;;;;19.05;11.05;;;7.90;1.00;;;;;;7393800;19;20090;-62
2022/03/14 00:07:05;;;;;;;16.90;10.37;;;8.00;1.00;;;;;;7388877;19;20082;-62
2022/03/14 00:09:34;;;;;;;14.25;10.07;;;8.20;1.00;;;;;;7395863;19;20070;-62
2022/03/14 00:12:08;;;;;;;18.08;10.27;;;8.30;1.00;;;;;;7393048;19;20021;-62
2022/03/14 00:14:38;;;;;;;18.55;10.50;;;8.30;1.00;;;;;;7393906;19;20015;-62
2022/03/14 00:17:08;;;;;;;17.77;9.82;;;8.30;1.00;;;;;;7389012;19;20694;-62
2022/03/14 00:19:40;;;;;;;16.65;10.45;;;8.40;1.00;;;;;;7394441;19;20010;-62
2022/03/14 00:22:10;;;;;;;17.02;10.70;;;8.30;1.00;;;;;;7395193;19;20036;-62
2022/03/14 00:24:40;;;;;;;16.58;10.48;;;8.30;1.00;;;;;;7390754;19;20514;-62
2022/03/14 00:27:12;;;;;;;16.60;9.82;;;8.30;1.00;;;;;;7388170;19;20077;-62
2022/03/14 00:29:42;;;;;;;16.90;10.80;;;8.30;1.00;;;;;;7393384;19;20039;-61
2022/03/14 00:32:12;;;;;;;18.50;10.82;;;8.20;1.00;;;;;;7392502;19;20041;-61
2022/03/14 00:34:42;;;;;;;16.15;10.45;;;8.20;1.00;;;;;;7389245;19;20021;-62
2022/03/14 00:37:12;;;;;;;15.85;10.50;;;8.30;1.00;;;;;;7390040;19;20010;-62
2022/03/14 00:39:47;;;;;;;17.58;11.15;;;8.40;1.00;;;;;;7392884;19;20100;-61
2022/03/14 00:42:21;;;;;;;20.95;12.23;;;8.40;1.00;;;;;;7393702;19;20015;-63
2022/03/14 00:44:51;;;;;;;17.98;11.35;;;8.50;1.00;;;;;;7389620;19;20021;-62
2022/03/14 00:47:26;;;;;;;18.20;11.93;;;8.50;1.00;;;;;;7389318;19;20027;-62
2022/03/14 00:49:56;;;;;;;20.30;12.23;;;8.50;1.00;;;;;;7393353;19;20498;-62
2022/03/14 00:52:26;;;;;;;23.45;12.32;;;8.50;1.00;;;;;;7392271;19;20014;-62
2022/03/14 00:54:56;;;;;;;19.73;11.50;;;8.60;1.00;;;;;;7388183;19;20018;-62
2022/03/14 00:57:29;;;;;;;20.98;12.45;;;8.60;1.00;;;;;;7388828;19;20010;-61
2022/03/14 00:59:59;;;;;;;23.15;12.80;;;9.00;1.00;;;;;;7394185;19;20078;-62
2022/03/14 01:02:31;;;;;;;21.02;12.82;;;9.50;1.00;;;;;;7393585;19;20010;-63
2022/03/14 01:05:01;;;;;;;23.15;13.82;;;9.40;1.00;;;;;;7386410;19;20022;-61
2022/03/14 01:07:34;;;;;;;23.65;13.05;;;9.30;1.00;;;;;;7388683;19;20040;-62
2022/03/14 01:10:04;;;;;;;21.88;13.40;;;9.20;1.00;;;;;;7393540;19;20047;-62
2022/03/14 01:12:39;;;;;;;24.00;14.23;;;9.10;1.00;;;;;;7391548;19;20014;-62
2022/03/14 01:15:10;;;;;;;25.30;13.98;;;9.00;1.00;;;;;;7388249;19;20074;-61
2022/03/14 01:17:40;;;;;;;27.48;14.65;;;9.00;1.00;;;;;;7388713;19;20098;-61
2022/03/14 01:20:12;;;;;;;24.85;14.68;;;9.00;1.00;;;;;;7390058;19;20011;-62
2022/03/14 01:22:42;;;;;;;23.40;14.07;;;9.10;1.00;;;;;;7391495;19;20019;-61
2022/03/14 01:25:12;;;;;;;29.02;14.40;;;9.20;1.00;;;;;;7387860;19;20010;-62
2022/03/14 01:27:45;;;;;;;21.77;13.65;;;9.30;1.00;;;;;;7388340;19;20011;-62
2022/03/14 01:30:15;;;;;;;26.35;15.18;;;9.40;1.00;;;;;;7392678;19;20010;-61
2022/03/14 01:32:45;;;;;;;22.15;13.23;;;9.40;1.00;;;;;;7390353;19;20022;-62
2022/03/14 01:35:19;;;;;;;23.98;14.38;;;9.50;1.00;;;;;;7387735;19;20664;-62
2022/03/14 01:37:50;;;;;;;19.90;14.35;;;9.40;1.00;;;;;;7389192;19;20049;-62
2022/03/14 01:40:21;;;;;;;21.30;13.05;;;9.40;1.00;;;;;;7392151;19;20014;-61
2022/03/14 01:42:54;;;;;;;18.88;11.68;;;9.40;1.00;;;;;;7391548;19;20019;-63
2022/03/14 01:45:24;;;;;;;21.30;10.00;;;9.40;1.00;;;;;;7386297;19;20011;-62
2022/03/14 01:47:54;;;;;;;17.83;9.23;;;9.50;1.00;;;;;;7389798;19;20074;-62
2022/03/14 01:50:25;;;;;;;13.38;8.63;;;9.40;1.00;;;;;;7391528;19;20014;-62
2022/03/14 01:52:55;;;;;;;12.30;7.45;;;9.40;1.00;;;;;;7391283;19;20053;-63
2022/03/14 01:55:25;;;;;;;10.20;6.25;;;9.50;1.00;;;;;;7384529;19;20035;-61
2022/03/14 01:57:58;;;;;;;26.90;8.82;;;9.50;1.00;;;;;;7390317;19;20017;-62
2022/03/14 02:00:28;;;;;;;7.77;5.30;;;9.40;1.00;;;;;;7390686;19;20382;-62
2022/03/14 02:02:58;;;;;;;12.15;5.20;;;9.50;1.00;;;;;;7390255;19;20047;-61
2022/03/14 02:05:29;;;;;;;8.40;5.28;;;9.40;1.00;;;;;;7382940;19;20013;-62
2022/03/14 02:07:59;;;;;;;10.57;5.47;;;9.40;1.00;;;;;;7389806;19;20090;-61
2022/03/14 02:10:29;;;;;;;8.15;4.47;;;9.40;1.00;;;;;;7390435;19;20025;-62
2022/03/14 02:13:06;;;;;;;5.50;3.88;;;9.30;1.00;;;;;;7391329;19;20315;-61
2022/03/14 02:15:36;;;;;;;4.43;3.08;;;9.30;1.30;;;;;;7382710;19;20007;-62
2022/03/14 02:18:06;;;;;;;6.47;3.35;;;9.20;2.30;;;;;;7386570;19;20015;-62
2022/03/14 02:20:39;;;;;;;5.43;2.90;;;9.20;3.30;;;;;;7390447;19;20088;-62
2022/03/14 02:23:09;;;;;;;3.28;2.33;;;9.10;4.20;;;;;;7391029;19;20174;-62
2022/03/14 02:25:39;;;;;;;3.33;2.40;;;9.00;5.40;;;;;;7382369;19;20023;-62
2022/03/14 02:28:09;;;;;;;3.20;2.30;;;8.90;6.80;;;;;;7387002;19;20011;-62
2022/03/14 02:30:38;;;;;;;4.57;2.80;;;8.90;7.80;;;;;;7389145;19;20411;-62
2022/03/14 02:33:08;;;;;;;3.50;2.17;;;8.80;9.20;;;;;;7387355;19;20018;-62
2022/03/14 02:35:42;;;;;;;3.60;2.20;;;8.80;10.10;;;;;;7379673;19;20006;-61
2022/03/14 02:38:14;;;;;;;2.58;1.67;;;8.80;10.70;;;;;;7386124;19;20106;-62
2022/03/14 02:40:46;;;;;;;2.67;1.80;;;8.70;11.30;;;;;;7388482;19;20015;-62
2022/03/14 02:43:16;;;;;;;2.47;1.75;;;8.60;11.30;;;;;;7389331;19;20029;-62
2022/03/14 02:45:47;;;;;;;2.95;1.80;;;8.60;12.30;;;;;;7382473;19;20088;-62
2022/03/14 02:48:17;;;;;;;2.80;1.98;;;8.50;13.10;;;;;;7386056;19;20078;-62
2022/03/14 02:50:52;;;;;;;1.75;1.50;;;8.50;13.80;;;;;;7385860;19;20082;-62
2022/03/14 02:53:23;;;;;;;2.42;1.85;;;8.50;14.80;;;;;;7388021;19;20326;-62
2022/03/14 02:55:53;;;;;;;2.80;2.00;;;8.50;14.80;;;;;;7382429;19;20081;-62
2022/03/14 02:58:23;;;;;;;2.17;1.63;;;8.40;15.20;;;;;;7385719;19;20014;-62
2022/03/14 03:00:53;;;;;;;2.22;1.83;;;8.40;15.70;;;;;;7387083;19;20031;-62
2022/03/14 03:03:23;;;;;;;3.90;2.40;;;8.40;16.50;;;;;;7388183;19;20037;-62
2022/03/14 03:05:56;;;;;;;3.10;2.20;;;8.40;17.20;;;;;;7382051;19;20074;-62
2022/03/14 03:08:27;;;;;;;3.20;1.77;;;8.30;19.50;;;;;;7385914;19;20022;-62
2022/03/14 03:10:58;;;;;;;3.95;2.03;;;8.20;21.80;;;;;;7386917;19;20006;-61
2022/03/14 03:13:29;;;;;;;2.97;2.10;;;8.10;25.00;;;;;;7381628;19;20020;-62
2022/03/14 03:15:59;;;;;;;3.42;2.30;;;8.00;27.40;;;;;;7381696;19;20035;-62
2022/03/14 03:18:29;;;;;;;3.55;2.40;;;8.00;29.20;;;;;;7384794;19;20474;-61
2022/03/14 03:21:01;;;;;;;3.55;2.33;;;7.90;31.30;;;;;;7386234;19;20412;-62
2022/03/14 03:23:31;;;;;;;6.85;3.15;;;7.90;32.80;;;;;;7387361;19;20018;-62
2022/03/14 03:26:01;;;;;;;4.70;2.70;;;7.90;34.20;;;;;;7242095;19;2730259;-61
2022/03/14 03:28:35;;;;;;;5.88;2.72;;;7.80;36.20;;;;;;7387522;19;20018;-62
2022/03/14 03:31:07;;;;;;;3.70;2.75;;;7.80;37.30;;;;;;7388094;19;20059;-62
2022/03/14 03:33:38;;;;;;;4.57;2.95;;;7.70;38.90;;;;;;7388044;19;20016;-61
2022/03/14 03:36:11;;;;;;;4.63;3.17;;;7.70;40.70;;;;;;7383601;19;20018;-61
2022/03/14 03:38:41;;;;;;;5.10;3.42;;;7.60;41.60;;;;;;7386512;19;20017;-61
2022/03/14 03:41:11;;;;;;;5.07;3.80;;;7.60;42.20;;;;;;7386011;19;20102;-61
2022/03/14 03:43:41;;;;;;;4.63;3.30;;;7.60;43.50;;;;;;7388175;19;20033;-62
2022/03/14 03:46:11;;;;;;;6.22;3.22;;;7.60;43.80;;;;;;7382304;19;20475;-61
2022/03/14 03:48:41;;;;;;;3.92;3.03;;;7.60;44.10;;;;;;7386437;19;20022;-62
2022/03/14 03:51:13;;;;;;;4.22;3.20;;;7.60;44.30;;;;;;7387577;19;20509;-62
2022/03/14 03:53:43;;;;;;;4.90;3.20;;;7.60;44.40;;;;;;7387735;19;20014;-61
2022/03/14 03:56:13;;;;;;;4.85;3.38;;;7.60;44.80;;;;;;7381722;19;20027;-61
2022/03/14 03:58:44;;;;;;;6.68;3.60;;;7.60;45.10;;;;;;7385812;19;20343;-61
2022/03/14 04:01:19;;;;;;;4.85;3.80;;;7.60;46.10;;;;;;7386358;19;20037;-61
2022/03/14 04:03:54;;;;;;;4.70;3.50;;;7.60;45.90;;;;;;7387909;19;20039;-62
2022/03/14 04:06:32;;;;;;;4.63;3.60;;;7.60;46.00;;;;;;7382669;19;20043;-62
2022/03/14 04:09:04;;;;;;;4.63;3.40;;;7.60;46.20;;;;;;7383288;19;20111;-62
2022/03/14 04:11:34;;;;;;;3.83;3.30;;;7.60;45.70;;;;;;7385243;19;20011;-62
2022/03/14 04:14:07;;;;;;;5.35;3.42;;;7.60;45.80;;;;;;7387089;19;20114;-62
2022/03/14 04:16:41;;;;;;;4.40;3.55;;;7.60;46.10;;;;;;7380277;19;20105;-61
2022/03/14 04:19:11;;;;;;;4.55;3.60;;;7.60;46.40;;;;;;7385574;19;20039;-62
2022/03/14 04:21:44;;;;;;;5.53;3.70;;;7.60;46.40;;;;;;7387174;19;20073;-62
2022/03/14 04:24:16;;;;;;;4.88;4.00;;;7.60;46.50;;;;;;7386675;19;20018;-62
2022/03/14 04:26:47;;;;;;;5.20;3.75;;;7.60;47.10;;;;;;7388346;19;20066;-60
2022/03/14 04:29:17;;;;;;;5.47;3.85;;;7.50;47.20;;;;;;7392220;19;20011;-61
2022/03/14 04:31:47;;;;;;;6.95;4.18;;;7.50;48.30;;;;;;7392810;19;20031;-61
2022/03/14 04:34:17;;;;;;;5.30;4.03;;;7.50;48.30;;;;;;7391951;19;20022;-61
2022/03/14 04:36:50;;;;;;;5.20;4.10;;;7.50;48.60;;;;;;7388076;19;20343;-62
2022/03/14 04:39:20;;;;;;;4.85;3.65;;;7.50;48.70;;;;;;7391392;19;20015;-61
2022/03/14 04:41:51;;;;;;;5.10;4.20;;;7.50;49.10;;;;;;7394613;19;20097;-61
2022/03/14 04:44:21;;;;;;;6.55;4.45;;;7.50;49.30;;;;;;7392674;19;20018;-61
2022/03/14 04:46:51;;;;;;;5.60;4.20;;;7.60;49.50;;;;;;7388746;19;20350;-62
2022/03/14 04:49:21;;;;;;;5.13;4.28;;;7.60;49.60;;;;;;7391015;19;20011;-61
2022/03/14 04:51:55;;;;;;;6.97;4.95;;;7.60;49.60;;;;;;7393253;19;20018;-62
2022/03/14 04:54:25;;;;;;;6.13;3.93;;;7.60;48.80;;;;;;7392785;19;20018;-61
2022/03/14 04:56:56;;;;;;;5.15;4.10;;;7.60;48.60;;;;;;7388795;19;20020;-61
2022/03/14 04:59:25;;;;;;;5.93;4.30;;;7.60;48.50;;;;;;7390047;19;20593;-61
2022/03/14 05:01:55;;;;;;;5.55;4.32;;;7.60;48.30;;;;;;7393141;19;20014;-61
2022/03/14 05:04:25;;;;;;;5.45;4.22;;;7.60;47.90;;;;;;7391959;19;20032;-61
2022/03/14 05:06:58;;;;;;;5.80;4.30;;;7.60;47.70;;;;;;7387146;19;20111;-61
2022/03/14 05:09:28;;;;;;;5.15;4.03;;;7.50;47.10;;;;;;7389245;19;20017;-61
2022/03/14 05:11:57;;;;;;;7.35;4.55;;;7.50;46.30;;;;;;7393189;19;20011;-61
2022/03/14 05:14:27;;;;;;;6.72;4.35;;;7.60;46.50;;;;;;7391537;19;20021;-61
2022/03/14 05:17:00;;;;;;;6.22;4.05;;;7.50;46.30;;;;;;7387826;19;20475;-61
2022/03/14 05:19:30;;;;;;;6.30;4.00;;;7.50;46.40;;;;;;7390255;19;20025;-61
2022/03/14 05:22:02;;;;;;;4.45;3.33;;;7.50;46.20;;;;;;7393129;19;20848;-61
2022/03/14 05:24:32;;;;;;;4.15;3.13;;;7.50;45.70;;;;;;7390673;19;20018;-61
2022/03/14 05:27:02;;;;;;;5.82;3.88;;;7.50;43.90;;;;;;7388229;19;20010;-61
2022/03/14 05:29:32;;;;;;;7.90;4.18;;;7.50;44.20;;;;;;7389930;19;20017;-62
2022/03/14 05:32:02;;;;;;;5.82;3.75;;;7.50;44.20;;;;;;7392397;19;20010;-62
2022/03/14 05:34:32;;;;;;;5.05;3.95;;;7.60;44.30;;;;;;7390875;19;20007;-62
2022/03/14 05:37:04;;;;;;;4.15;2.90;;;7.60;43.30;;;;;;7384952;19;20530;-61
2022/03/14 05:39:34;;;;;;;6.10;2.72;;;7.60;41.50;;;;;;7389964;19;20018;-61
2022/03/14 05:42:05;;;;;;;7.20;3.13;;;7.60;42.00;;;;;;7391206;19;20070;-61
2022/03/14 05:44:35;;;;;;;4.20;2.60;;;7.70;41.50;;;;;;7389826;19;20011;-62
2022/03/14 05:47:05;;;;;;;3.85;2.53;;;7.70;39.00;;;;;;7387308;19;20014;-61
2022/03/14 05:49:35;;;;;;;4.18;2.30;;;7.70;38.80;;;;;;7389760;19;20020;-62
2022/03/14 05:52:09;;;;;;;3.83;2.17;;;7.70;36.20;;;;;;7391227;19;20067;-61
2022/03/14 05:54:39;;;;;;;3.78;2.50;;;7.70;36.10;;;;;;7390388;19;20014;-61
2022/03/14 05:57:09;;;;;;;3.92;1.83;;;7.70;36.10;;;;;;7389263;19;20030;-61
2022/03/14 05:59:39;;;;;;;3.50;2.10;;;7.70;33.40;;;;;;7387162;19;20011;-62
2022/03/14 06:02:10;;;;;;;4.38;1.90;;;7.70;32.70;;;;;;7388108;19;20406;-60
2022/03/14 06:04:41;;;;;;;3.00;1.90;;;7.70;32.20;;;;;;7388892;19;20014;-62
2022/03/14 06:07:14;;;;;;;3.92;1.73;;;7.70;31.40;;;;;;7388406;19;20089;-62
2022/03/14 06:09:44;;;;;;;2.92;1.40;;;7.60;29.60;;;;;;7388497;19;20477;-62
2022/03/14 06:12:13;;;;;;;6.15;1.42;;;7.60;28.90;;;;;;7388447;19;20026;-62
2022/03/14 06:14:43;;;;;;;3.33;1.13;;;7.60;28.10;;;;;;7387683;19;20057;-61
2022/03/14 06:17:13;;;;;;;3.00;1.17;;;7.70;24.50;;;;;;7388963;19;20028;-62
2022/03/14 06:19:43;;;;;;;3.35;1.00;;;7.70;21.30;;;;;;7388784;19;20013;-60
2022/03/14 06:22:17;;;;;;;3.47;1.50;;;7.70;19.80;;;;;;7388954;19;20016;-62
2022/03/14 06:24:48;;;;;;;7.03;1.10;;;7.70;18.60;;;;;;7386077;19;20021;-60
2022/03/14 06:27:18;;;;;;;5.78;1.30;;;7.70;15.80;;;;;;7388480;19;20007;-60
2022/03/14 06:29:54;;;;;;;6.60;1.42;;;7.70;14.30;;;;;;7388527;19;20018;-61
2022/03/14 06:32:24;;;;;;;5.03;1.63;;;7.70;14.30;;;;;;7388094;19;20049;-61
2022/03/14 06:34:54;;;;;;;3.55;1.38;;;7.70;13.50;;;;;;7384968;19;20018;-61
2022/03/14 06:37:29;;;;;;;7.82;1.50;;;7.70;14.00;;;;;;7386194;19;20074;-62
2022/03/14 06:39:59;;;;;;;8.93;2.33;;;7.80;13.50;;;;;;7389446;19;20018;-61
2022/03/14 06:42:29;;;;;;;7.88;1.70;;;7.80;13.60;;;;;;7387783;19;20031;-61
2022/03/14 06:45:03;;;;;;;6.13;1.58;;;7.90;13.60;;;;;;7384466;19;20020;-61
2022/03/14 06:47:34;;;;;;;8.15;1.75;;;7.90;13.20;;;;;;7385136;19;20022;-61
2022/03/14 06:50:03;;;;;;;5.45;1.83;;;8.00;13.10;;;;;;7390065;19;20027;-61
2022/03/14 06:52:36;;;;;;;5.07;1.27;;;8.20;13.40;;;;;;7388868;19;20459;-61
2022/03/14 06:55:09;;;;;;;4.25;1.20;;;8.20;12.40;;;;;;7384822;19;20014;-60
2022/03/14 06:57:39;;;;;;;5.55;1.50;;;8.30;12.90;;;;;;7383564;19;20451;-61
2022/03/14 07:00:10;;;;;;;6.97;1.63;;;8.30;9.10;;;;;;7389567;19;20066;-62
2022/03/14 07:02:41;;;;;;;7.10;1.58;;;8.30;6.20;;;;;;7387799;19;20018;-62
2022/03/14 07:05:17;;;;;;;4.72;1.10;;;8.30;7.20;;;;;;7384646;19;20010;-62
2022/03/14 07:07:50;;;;;;;4.05;1.38;;;8.30;6.20;;;;;;7384034;19;20015;-60
2022/03/14 07:10:21;;;;;;;5.40;1.02;;;8.30;5.10;;;;;;7389467;19;20070;-62
2022/03/14 07:12:51;;;;;;;3.50;1.38;;;8.30;3.70;;;;;;7388165;19;20020;-61
2022/03/14 07:15:25;;;;;;;4.47;1.20;;;8.40;5.00;;;;;;7383163;19;20021;-60
2022/03/14 07:17:55;;;;;;;3.22;1.30;;;8.40;3.80;;;;;;7386477;19;20605;-61
2022/03/14 07:20:26;;;;;;;5.50;1.20;;;8.50;3.80;;;;;;7387547;19;20024;-61
2022/03/14 07:23:00;;;;;;;5.78;1.60;;;8.50;3.60;;;;;;7387787;19;20007;-61
2022/03/14 07:25:32;;;;;;;8.05;1.50;;;8.60;2.40;;;;;;7380288;19;20078;-61
2022/03/14 07:28:05;;;;;;;7.10;1.67;;;8.60;1.00;;;;;;7386247;19;20006;-61
2022/03/14 07:30:35;;;;;;;9.13;1.63;;;8.70;1.80;;;;;;7387727;19;20017;-61
2022/03/14 07:33:05;;;;;;;4.63;1.50;;;8.80;1.00;;;;;;7388042;19;20538;-61
2022/03/14 07:35:36;;;;;;;4.50;1.45;;;8.80;1.00;;;;;;7379324;19;20089;-62
2022/03/14 07:38:10;;;;;;;5.55;1.90;;;8.80;1.00;;;;;;7383493;19;20030;-61
2022/03/14 07:40:42;;;;;;;5.70;1.38;;;8.80;1.00;;;;;;7388585;19;20015;-60
2022/03/14 07:43:12;;;;;;;6.43;1.50;;;8.80;1.00;;;;;;7387198;19;20014;-61
2022/03/14 07:45:42;;;;;;;5.97;1.33;;;9.00;1.00;;;;;;7380383;19;20102;-60
2022/03/14 07:48:13;;;;;;;5.85;1.40;;;9.10;1.00;;;;;;7386135;19;20039;-61
2022/03/14 07:50:43;;;;;;;6.90;1.65;;;9.20;1.00;;;;;;7387166;19;20035;-61
2022/03/14 07:53:16;;;;;;;6.65;1.33;;;9.30;1.00;;;;;;7386283;19;20030;-62
2022/03/14 07:55:46;;;;;;;6.85;1.60;;;9.20;1.00;;;;;;7379529;19;20074;-63
2022/03/14 07:58:15;;;;;;;9.30;1.83;;;9.50;1.00;;;;;;7384713;19;20014;-62
2022/03/14 08:00:45;;;;;;;8.55;1.90;;;9.60;1.00;;;;;;7392909;19;20073;-60
2022/03/14 08:03:16;;;;;;;10.38;3.03;;;9.90;1.00;;;;;;7393449;19;20022;-61
2022/03/14 08:05:47;;;;;;;8.38;2.75;;;10.00;1.00;;;;;;7386983;19;20010;-61
2022/03/14 08:08:19;;;;;;;7.53;2.88;;;9.80;1.00;;;;;;7391659;19;20022;-62
2022/03/14 08:10:49;;;;;;;10.00;3.95;;;9.80;1.00;;;;;;7393954;19;20495;-62
2022/03/14 08:13:20;;;;;;;9.23;2.17;;;9.90;1.00;;;;;;7393765;19;20487;-60
2022/03/14 08:15:50;;;;;;;5.70;1.88;;;9.80;1.00;;;;;;7387681;19;20051;-62
2022/03/14 08:18:20;;;;;;;9.88;3.08;;;9.80;1.00;;;;;;7390231;19;20018;-62
2022/03/14 08:20:53;;;;;;;12.38;1.30;;;9.90;1.00;;;;;;7394922;19;20154;-61
2022/03/14 08:23:26;;;;;;;6.88;1.80;;;10.00;1.00;;;;;;7392634;19;20096;-63
2022/03/14 08:25:56;;;;;;;4.47;1.42;;;9.80;1.00;;;;;;7387723;19;20017;-61
2022/03/14 08:28:26;;;;;;;6.15;1.30;;;9.70;1.00;;;;;;7389780;19;20418;-61
2022/03/14 08:30:56;;;;;;;3.25;1.13;;;9.90;1.00;;;;;;7394001;19;20420;-62
2022/03/14 08:33:27;;;;;;;6.03;0.95;;;9.90;1.00;;;;;;7391038;19;20021;-62
2022/03/14 08:36:00;;;;;;;6.70;1.65;;;9.90;1.00;;;;;;7385598;19;20100;-62
2022/03/14 08:38:33;;;;;;;8.45;1.75;;;10.00;1.00;;;;;;7389158;19;20044;-62
2022/03/14 08:41:03;;;;;;;4.75;1.13;;;9.90;1.00;;;;;;7394712;19;20027;-61
2022/03/14 08:43:33;;;;;;;4.80;0.95;;;9.90;1.00;;;;;;7391736;19;20053;-61
2022/03/14 08:46:05;;;;;;;7.57;1.50;;;10.00;1.00;;;;;;7388282;19;20335;-63
2022/03/14 08:48:35;;;;;;;4.60;1.27;;;10.10;1.00;;;;;;7388719;19;20006;-64
2022/03/14 08:51:05;;;;;;;6.60;1.63;;;10.40;1.00;;;;;;7387490;19;20086;-62
2022/03/14 08:53:38;;;;;;;6.07;1.23;;;10.30;1.00;;;;;;7392052;19;20526;-62
2022/03/14 08:56:08;;;;;;;12.95;1.55;;;10.40;1.00;;;;;;7387557;19;20027;-61
2022/03/14 08:58:38;;;;;;;7.63;1.23;;;10.60;1.00;;;;;;7389788;19;20535;-63
2022/03/14 09:01:10;;;;;;;7.32;1.88;;;10.30;1.00;;;;;;7393592;19;20022;-62
2022/03/14 09:03:42;;;;;;;4.03;1.15;;;10.60;1.00;;;;;;7389224;19;20023;-61
2022/03/14 09:06:12;;;;;;;8.23;1.60;;;10.80;1.00;;;;;;7386040;19;20015;-62
2022/03/14 09:08:44;;;;;;;3.38;1.13;;;10.90;1.00;;;;;;7390171;19;20406;-62
2022/03/14 09:11:14;;;;;;;5.97;1.20;;;11.20;1.00;;;;;;7392542;19;20030;-62
2022/03/14 09:13:44;;;;;;;7.85;1.58;;;11.10;1.00;;;;;;7389695;19;20015;-61
2022/03/14 09:16:14;;;;;;;8.38;1.40;;;10.60;1.00;;;;;;7386845;19;20010;-61
2022/03/14 09:18:44;;;;;;;7.03;1.45;;;10.90;1.00;;;;;;7389480;19;20108;-61
2022/03/14 09:21:15;;;;;;;5.78;1.45;;;10.80;1.00;;;;;;7392537;19;20025;-62
2022/03/14 09:23:47;;;;;;;5.38;1.20;;;11.00;1.00;;;;;;7389629;19;20014;-62
2022/03/14 09:26:17;;;;;;;4.63;1.10;;;11.60;1.00;;;;;;7385905;19;20078;-63
2022/03/14 09:28:49;;;;;;;3.72;1.48;;;11.40;1.00;;;;;;7384289;19;20074;-61
2022/03/14 09:31:21;;;;;;;8.07;1.50;;;11.50;1.00;;;;;;7387898;19;20470;-61
2022/03/14 09:33:51;;;;;;;6.82;1.33;;;11.50;1.00;;;;;;7385531;19;20503;-62
2022/03/14 09:36:21;;;;;;;6.82;1.50;;;11.70;1.00;;;;;;7381664;19;20470;-61
2022/03/14 09:38:53;;;;;;;3.75;1.20;;;11.90;1.00;;;;;;7384538;19;20556;-62
2022/03/14 09:41:24;;;;;;;4.45;1.70;;;11.70;1.00;;;;;;7387585;19;20021;-61
2022/03/14 09:43:55;;;;;;;5.57;1.08;;;11.70;1.00;;;;;;7389213;19;20458;-61
2022/03/14 09:46:26;;;;;;;3.38;1.02;;;11.70;1.00;;;;;;7383639;19;20073;-62
2022/03/14 09:49:00;;;;;;;4.70;1.30;;;11.60;1.00;;;;;;7388434;19;20021;-61
2022/03/14 09:51:31;;;;;;;4.80;1.03;;;11.80;1.00;;;;;;7391420;19;20029;-62
2022/03/14 09:54:04;;;;;;;6.63;1.48;;;11.60;1.00;;;;;;7388640;19;20025;-61
2022/03/14 09:56:35;;;;;;;6.32;1.40;;;11.90;1.00;;;;;;7383998;19;20074;-63
2022/03/14 09:59:06;;;;;;;2.60;0.88;;;11.80;1.00;;;;;;7387945;19;20007;-62
2022/03/14 10:01:37;;;;;;;4.63;1.05;;;12.00;1.00;;;;;;7391640;19;20105;-62
2022/03/14 10:04:08;;;;;;;2.95;1.08;;;12.40;1.00;;;;;;7386786;19;20551;-62
2022/03/14 10:06:40;;;;;;;3.35;1.10;;;12.40;1.00;;;;;;7385692;19;20018;-62
2022/03/14 10:09:13;;;;;;;4.75;1.38;;;12.40;1.00;;;;;;7388003;19;20526;-62
2022/03/14 10:11:43;;;;;;;5.43;1.50;;;12.30;1.00;;;;;;7389085;19;20027;-62
2022/03/14 10:14:19;;;;;;;4.68;1.25;;;12.20;1.00;;;;;;7387039;19;20018;-61
2022/03/14 10:16:49;;;;;;;3.67;0.88;;;12.30;1.00;;;;;;7382529;19;20359;-62
2022/03/14 10:19:22;;;;;;;4.18;1.23;;;12.40;1.00;;;;;;7387812;19;20084;-62
2022/03/14 10:21:53;;;;;;;5.18;1.20;;;12.50;1.00;;;;;;7389675;19;20479;-62
2022/03/14 10:24:26;;;;;;;5.43;1.17;;;13.00;1.00;;;;;;7386245;19;20017;-62
2022/03/14 10:26:57;;;;;;;5.75;1.48;;;12.90;1.00;;;;;;7384246;19;20077;-62
2022/03/14 10:29:28;;;;;;;6.45;1.20;;;12.70;1.00;;;;;;7387194;19;20035;-62
2022/03/14 10:31:58;;;;;;;5.55;1.10;;;12.70;1.00;;;;;;7390170;19;20074;-63
2022/03/14 10:34:28;;;;;;;6.25;1.20;;;12.90;1.00;;;;;;7387795;19;20014;-62
2022/03/14 10:37:00;;;;;;;5.10;0.95;;;12.80;1.00;;;;;;7385133;19;20010;-62
2022/03/14 10:39:34;;;;;;;2.17;0.82;;;12.90;1.00;;;;;;7387083;19;20011;-62
2022/03/14 10:42:07;;;;;;;6.88;1.33;;;13.00;1.00;;;;;;7388197;19;20470;-61
2022/03/14 10:44:55;;;;;;;5.93;1.02;;;13.00;1.00;;;;;;7375590;19;20550;-62
2022/03/14 10:47:27;;;;;;;4.45;1.27;;;12.70;1.00;;;;;;7384073;19;20506;-63
2022/03/14 10:49:57;;;;;;;7.57;1.42;;;12.50;1.00;;;;;;7383659;19;20032;-63
2022/03/14 10:52:27;;;;;;;5.35;1.20;;;13.20;1.00;;;;;;7386630;19;20471;-62
2022/03/14 10:54:59;;;;;;;3.28;0.90;;;13.60;1.00;;;;;;7383683;19;20122;-62
2022/03/14 10:57:31;;;;;;;11.20;1.40;;;13.80;1.00;;;;;;7384554;19;20024;-62
2022/03/14 11:00:02;;;;;;;5.32;1.10;;;14.00;1.00;;;;;;7384411;19;20007;-63
2022/03/14 11:02:33;;;;;;;5.90;1.00;;;13.80;1.00;;;;;;7385535;19;20014;-62
2022/03/14 11:05:05;;;;;;;4.75;1.20;;;13.30;1.00;;;;;;7381937;19;20056;-63
2022/03/14 11:07:35;;;;;;;5.97;2.85;;;13.40;1.00;;;;;;7382875;19;20038;-63
2022/03/14 11:10:09;;;;;;;2.90;1.13;;;13.70;1.00;;;;;;7385360;19;20447;-62
2022/03/14 11:12:39;;;;;;;4.38;1.20;;;14.20;1.00;;;;;;7386126;19;20078;-62
2022/03/14 11:15:13;;;;;;;5.32;1.25;;;14.10;1.00;;;;;;7382455;19;20018;-61
2022/03/14 11:17:44;;;;;;;3.10;0.70;;;14.20;1.00;;;;;;7385161;19;20022;-62
2022/03/14 11:20:34;;;;;;;4.93;1.40;;;14.10;1.00;;;;;;7387400;19;20015;-62
2022/03/14 11:23:05;;;;;;;6.65;1.08;;;14.00;1.00;;;;;;7386191;19;20051;-63
2022/03/14 11:25:41;;;;;;;3.50;0.88;;;13.20;1.00;;;;;;7378987;19;20085;-62
2022/03/14 11:28:11;;;;;;;3.47;0.80;;;12.90;1.00;;;;;;7385954;19;20010;-62
2022/03/14 11:30:41;;;;;;;2.30;0.82;;;13.00;1.00;;;;;;7386962;19;20467;-61
2022/03/14 11:33:14;;;;;;;5.38;1.15;;;13.40;1.00;;;;;;7386297;19;20085;-62
2022/03/14 11:35:45;;;;;;;2.17;0.80;;;13.20;1.00;;;;;;7384633;19;20007;-62
2022/03/14 11:38:17;;;;;;;2.17;0.82;;;12.80;1.00;;;;;;7389029;19;20019;-62
2022/03/14 11:40:51;;;;;;;2.92;1.10;;;12.40;1.00;;;;;;7393303;19;20053;-61
2022/03/14 11:43:22;;;;;;;4.60;0.95;;;12.60;1.00;;;;;;7391901;19;20100;-63
2022/03/14 11:45:53;;;;;;;5.25;0.88;;;12.60;1.00;;;;;;7388281;19;20101;-61
2022/03/14 11:48:23;;;;;;;3.17;1.10;;;12.80;1.00;;;;;;7391131;19;20141;-62
2022/03/14 11:51:02;;;;;;;3.88;0.75;;;13.20;1.00;;;;;;7394143;19;20049;-62
2022/03/14 11:53:34;;;;;;;2.25;0.88;;;13.00;1.00;;;;;;7393079;19;20038;-62
2022/03/14 11:56:10;;;;;;;2.95;0.82;;;13.20;1.00;;;;;;7387790;19;20061;-61
2022/03/14 11:58:41;;;;;;;3.80;1.00;;;13.40;1.00;;;;;;7390603;19;20035;-63
2022/03/14 12:01:22;;;;;;;1.58;0.60;;;13.20;1.00;;;;;;7394732;19;20114;-62
2022/03/14 12:03:54;;;;;;;3.10;0.95;;;13.10;1.00;;;;;;7391637;19;20011;-62
2022/03/14 12:06:55;;;;;;;3.33;0.80;;;13.60;1.00;;;;;;7384264;19;20567;-62
2022/03/14 12:09:45;;;;;;;2.65;0.73;;;13.60;1.00;;;;;;7391075;19;20478;-62
2022/03/14 12:12:34;;;;;;;3.65;0.75;;;13.40;1.00;;;;;;7393807;19;20495;-62
2022/03/14 12:15:06;;;;;;;7.22;1.13;;;13.20;1.00;;;;;;7387029;19;20451;-63
2022/03/14 12:17:38;;;;;;;5.00;0.85;;;13.50;1.00;;;;;;7389255;19;20068;-63
2022/03/14 12:20:15;;;;;;;3.22;1.10;;;13.00;1.00;;;;;;7388857;19;20405;-62
2022/03/14 12:22:48;;;;;;;3.05;0.77;;;12.90;1.00;;;;;;7393242;19;20035;-62
2022/03/14 12:25:43;;;;;;;3.63;0.90;;;12.90;1.00;;;;;;7387616;19;20082;-63
2022/03/14 12:28:27;;;;;;;;;;;13.00;1.00;;;;;;7391562;19;20351;-62
2022/03/14 12:31:15;;;;;;;4.67;0.90;;;13.30;1.00;;;;;;7394325;19;19970;-62
2022/03/14 12:33:47;;;;;;;1.88;0.70;;;13.50;1.00;;;;;;7390677;19;20803;-63
2022/03/14 12:36:36;;;;;;;2.60;0.90;;;13.60;1.00;;;;;;7387574;19;20687;-62
2022/03/14 12:39:27;;;;;;;5.10;1.10;;;13.60;1.00;;;;;;7389856;19;20411;-63
2022/03/14 12:42:25;;;;;;;4.18;1.05;;;13.40;1.00;;;;;;7393960;19;20010;-62
2022/03/14 12:45:17;;;;;;;7.32;1.33;;;13.70;1.00;;;;;;7385340;19;20029;-63
2022/03/14 12:47:58;;;;;;;3.80;1.15;;;13.60;1.00;;;;;;7392551;19;20018;-62
2022/03/14 12:50:57;;;;;;;2.63;0.93;;;13.80;1.00;;;;;;7390610;19;20724;-62
2022/03/14 12:53:46;;;;;;;3.97;1.40;;;13.80;1.00;;;;;;7391307;19;20492;-62
2022/03/14 12:56:29;;;;;;;5.30;0.98;;;13.30;1.00;;;;;;7384879;19;20082;-62
2022/03/14 12:59:05;;;;;;;5.47;1.48;;;13.70;1.00;;;;;;7388415;19;20022;-62
2022/03/14 13:01:37;;;;;;;5.95;1.27;;;13.90;1.00;;;;;;7392038;19;20041;-62
2022/03/14 13:04:15;;;;;;;3.38;0.98;;;13.50;1.00;;;;;;7389801;19;20026;-63
2022/03/14 13:06:48;;;;;;;2.95;0.77;;;13.60;1.00;;;;;;7386471;19;20010;-63
2022/03/14 13:09:40;;;;;;;3.75;0.80;;;12.90;1.00;;;;;;7389367;19;20022;-62
2022/03/14 13:12:15;;;;;;;4.30;0.73;;;13.20;1.00;;;;;;7392977;19;20495;-62
2022/03/14 13:14:45;;;;;;;4.85;0.88;;;13.60;1.00;;;;;;7386708;19;20054;-62
2022/03/14 13:17:23;;;;;;;2.45;0.70;;;13.60;1.00;;;;;;7389611;19;20355;-62
2022/03/14 13:19:56;;;;;;;4.97;0.80;;;13.70;1.00;;;;;;7383692;19;20052;-62
2022/03/14 13:22:26;;;;;;;2.60;0.50;;;13.60;1.00;;;;;;7386034;19;20078;-62
2022/03/14 13:24:56;;;;;;;4.22;1.25;;;13.60;1.00;;;;;;7383432;19;20030;-62